Archival Weather

Chicago O'Hare International

Chicago, Illinois (KORD)

Report from: Wednesday, January 25, 2023 8:30 AM CST
Current time: Monday, February 6, 2023 1:04 AM CST

Current weather
Weather history
Weather forecast

Present weatherLight snow, mist
Temperature0.6°C (33.1°F)
Wind chill-3.6°C (25.5°F)
Dew point-1.1°C (30.0°F)
Winds 8 kts (4.1 m/s, 9.2 mph) Northeast (40°)
Visibility1 mi. (1.6 km)
Clouds Ceiling: Overcast 500 ft. (152 m)
Altimeter29.75 in.Hg (1007 mB)
Precipitiation0.01 in. (0 mm)
Relative humidity88 %
Density altitude-1,473 ft. (-449 m)
Remarks Automated weather observing station with precipitation discriminator
Flight conditions Instrument Meteorological Conditions
Raw dataKORD 251430Z 04008KT 1SM R10L/5000V6000FT -SN BR OVC005 01/M01 A2975 RMK AO2 P0001 T00061011
An error has occurred. This application may no longer respond until reloaded. Reload 🗙